createdAt,value
2023-02-07T00:00:00.309Z,99011.03
2023-02-07T00:01:23.494Z,99014.72
2023-02-07T00:02:45.468Z,99014.13
2023-02-07T00:04:08.785Z,99006.16
2023-02-07T00:05:29.617Z,99006.16
2023-02-07T00:06:50.990Z,99002.69
2023-02-07T00:08:14.990Z,98998.41
2023-02-07T00:09:36.258Z,98996.56
2023-02-07T00:11:04.576Z,98994.47
2023-02-07T00:12:25.780Z,98990.44
2023-02-07T00:13:49.207Z,98991.22
2023-02-07T00:15:10.958Z,98993.09
2023-02-07T00:16:32.457Z,98988.78
2023-02-07T00:17:53.225Z,98991.66
2023-02-07T00:19:13.963Z,98988.00
2023-02-07T00:20:35.250Z,98986.13
2023-02-07T00:21:59.566Z,98988.78
2023-02-07T00:23:20.799Z,98999.44
2023-02-07T00:24:44.411Z,98994.47
2023-02-07T00:26:12.909Z,98994.47
2023-02-07T00:27:36.493Z,99005.94
2023-02-07T00:28:57.805Z,99001.66
2023-02-07T00:30:19.302Z,99014.03
2023-02-07T00:31:40.768Z,99019.47
2023-02-07T00:33:02.458Z,99014.97
2023-02-07T00:34:23.301Z,99010.22
2023-02-07T00:35:44.459Z,99014.97
2023-02-07T00:37:08.418Z,99002.69
2023-02-07T00:38:29.671Z,99002.53
2023-02-07T00:39:50.815Z,99006.84
2023-02-07T00:41:14.504Z,99003.38
2023-02-07T00:42:35.370Z,99001.88
2023-02-07T00:43:56.458Z,99022.00
2023-02-07T00:45:20.036Z,99029.53
2023-02-07T00:46:41.557Z,99012.16
2023-02-07T00:48:05.832Z,99020.84
2023-02-07T00:49:29.652Z,99024.66
2023-02-07T00:50:51.791Z,99022.44
2023-02-07T00:52:12.621Z,99015.84
2023-02-07T00:53:33.731Z,99012.38
2023-02-07T00:54:56.192Z,99006.25
2023-02-07T00:56:21.308Z,98999.88
2023-02-07T00:57:42.664Z,98991.09
2023-02-07T00:59:03.468Z,98980.81
2023-02-07T01:00:24.548Z,98975.13
2023-02-07T01:01:46.035Z,98979.16
2023-02-07T01:03:07.052Z,98981.25
2023-02-07T01:04:33.733Z,98975.91
2023-02-07T01:05:54.861Z,98986.34
2023-02-07T01:07:20.095Z,99003.59
2023-02-07T01:08:43.146Z,99010.09
2023-02-07T01:10:05.338Z,99003.38
2023-02-07T01:11:29.922Z,99000.94
2023-02-07T01:12:52.144Z,99003.81
2023-02-07T01:14:13.527Z,98998.06
2023-02-07T01:15:37.366Z,98984.97
2023-02-07T01:16:58.740Z,98990.72
2023-02-07T01:18:19.793Z,98996.28
2023-02-07T01:19:43.813Z,99001.97
2023-02-07T01:21:14.287Z,99000.13
2023-02-07T01:22:36.369Z,98995.38
2023-02-07T01:23:57.650Z,98988.19
2023-02-07T01:25:21.466Z,98992.34
2023-02-07T01:26:45.138Z,98991.09
2023-02-07T01:28:09.105Z,98993.97
2023-02-07T01:29:30.027Z,98986.81
2023-02-07T01:30:51.107Z,98991.09
2023-02-07T01:32:12.123Z,98988.44
2023-02-07T01:33:33.317Z,99001.72
2023-02-07T01:34:54.820Z,99008.34
2023-02-07T01:36:16.569Z,99003.00
2023-02-07T01:37:38.324Z,99006.25
2023-02-07T01:38:59.137Z,99012.03
2023-02-07T01:40:20.577Z,99016.09
2023-02-07T01:41:44.565Z,99012.84
2023-02-07T01:43:17.000Z,99021.75
2023-02-07T01:44:59.788Z,99017.72
2023-02-07T01:46:21.185Z,99017.13
2023-02-07T01:47:42.379Z,99015.50
2023-02-07T01:49:05.061Z,99022.88
2023-02-07T01:50:26.516Z,99016.91
2023-02-07T01:51:56.393Z,99001.00
2023-02-07T01:53:21.651Z,98996.28
2023-02-07T01:54:45.550Z,98998.94
2023-02-07T01:56:29.419Z,99004.88
2023-02-07T01:57:56.717Z,98998.50
2023-02-07T01:59:18.276Z,98996.28
2023-02-07T02:00:39.987Z,98994.84
2023-02-07T02:02:04.541Z,98998.34
2023-02-07T02:03:28.139Z,98990.94
2023-02-07T02:04:52.104Z,98986.66
2023-02-07T02:06:14.100Z,98983.97
2023-02-07T02:07:38.403Z,98982.59
2023-02-07T02:09:01.599Z,98980.50
2023-02-07T02:10:28.227Z,98982.13
2023-02-07T02:12:11.827Z,98993.16
2023-02-07T02:13:43.735Z,98999.06
2023-02-07T02:15:20.680Z,99004.88
2023-02-07T02:16:48.419Z,99009.94
2023-02-07T02:18:23.573Z,99014.06
2023-02-07T02:20:15.264Z,99011.78
2023-02-07T02:22:05.705Z,99008.34
2023-02-07T02:23:41.501Z,99008.34
2023-02-07T02:25:26.501Z,99013.84
2023-02-07T02:26:57.840Z,99016.31
2023-02-07T02:28:52.826Z,99007.06
2023-02-07T02:30:43.854Z,98998.09
2023-02-07T02:32:40.377Z,99002.41
2023-02-07T02:34:09.902Z,98996.03
2023-02-07T02:35:40.263Z,98991.16
2023-02-07T02:37:14.276Z,98997.97
2023-02-07T02:38:48.063Z,98995.69
2023-02-07T02:40:14.102Z,98985.25
2023-02-07T02:41:40.513Z,98982.38
2023-02-07T02:43:09.105Z,98983.97
2023-02-07T02:44:38.196Z,98984.78
2023-02-07T02:46:04.009Z,98982.81
2023-02-07T02:47:29.603Z,98977.06
2023-02-07T02:48:53.238Z,98981.22
2023-02-07T02:50:21.904Z,98979.72
2023-02-07T02:51:43.151Z,98981.78
2023-02-07T02:53:06.783Z,98992.44
2023-02-07T02:54:31.417Z,98980.97
2023-02-07T02:56:31.283Z,98983.41
2023-02-07T02:58:05.242Z,98985.84
2023-02-07T02:59:51.354Z,98994.41
2023-02-07T03:01:23.750Z,98990.09
2023-02-07T03:02:58.629Z,98985.84
2023-02-07T03:04:46.816Z,98988.50
2023-02-07T03:06:21.651Z,98990.09
2023-02-07T03:07:54.280Z,98984.66
2023-02-07T03:09:25.088Z,98983.88
2023-02-07T03:10:55.866Z,98979.94
2023-02-07T03:12:25.394Z,98976.81
2023-02-07T03:13:56.029Z,98977.28
2023-02-07T03:15:24.500Z,98973.44
2023-02-07T03:16:55.676Z,98973.44
2023-02-07T03:18:21.937Z,98971.59
2023-02-07T03:19:52.236Z,98981.53
2023-02-07T03:21:24.034Z,98978.66
2023-02-07T03:22:47.387Z,98984.53
2023-02-07T03:24:13.549Z,98975.88
2023-02-07T03:25:36.812Z,98971.44
2023-02-07T03:27:01.325Z,98968.19
2023-02-07T03:28:23.834Z,98970.53
2023-02-07T03:29:52.564Z,98970.00
2023-02-07T03:31:17.637Z,98967.28
2023-02-07T03:32:42.248Z,98969.84
2023-02-07T03:34:09.080Z,98964.41
2023-02-07T03:35:38.180Z,98963.75
2023-02-07T03:37:12.386Z,98960.78
2023-02-07T03:38:33.269Z,98962.16
2023-02-07T03:39:54.519Z,98967.50
2023-02-07T03:41:21.480Z,98965.41
2023-02-07T03:42:46.911Z,98962.97
2023-02-07T03:44:10.963Z,98959.88
2023-02-07T03:45:35.328Z,98959.28
2023-02-07T03:46:57.629Z,98961.47
2023-02-07T03:48:19.040Z,98957.22
2023-02-07T03:49:40.100Z,98949.00
2023-02-07T03:51:01.317Z,98951.06
2023-02-07T03:52:27.180Z,98954.53
2023-02-07T03:53:51.175Z,98961.72
2023-02-07T03:55:12.774Z,98967.84
2023-02-07T03:56:34.289Z,98974.19
2023-02-07T03:57:55.616Z,98981.97
2023-02-07T03:59:16.509Z,98973.19
2023-02-07T04:00:39.736Z,98980.09
2023-02-07T04:02:00.627Z,98969.47
2023-02-07T04:03:21.767Z,98970.72
2023-02-07T04:04:43.292Z,98963.34
2023-02-07T04:06:05.095Z,98961.16
2023-02-07T04:07:28.986Z,98966.22
2023-02-07T04:08:50.471Z,98969.94
2023-02-07T04:10:14.882Z,98967.28
2023-02-07T04:11:35.996Z,98972.81
2023-02-07T04:12:59.810Z,98975.91
2023-02-07T04:14:21.111Z,98971.88
2023-02-07T04:15:42.402Z,98975.91
2023-02-07T04:17:06.108Z,98970.59
2023-02-07T04:18:29.920Z,98971.88
2023-02-07T04:19:53.454Z,98973.91
2023-02-07T04:21:14.218Z,98976.38
2023-02-07T04:22:37.868Z,98972.69
2023-02-07T04:23:59.160Z,98978.84
2023-02-07T04:25:20.367Z,98979.44
2023-02-07T04:26:46.252Z,98985.78
2023-02-07T04:28:07.437Z,98976.09
2023-02-07T04:29:30.708Z,98974.09
2023-02-07T04:30:51.990Z,98975.88
2023-02-07T04:32:13.090Z,98972.97
2023-02-07T04:33:34.046Z,98974.59
2023-02-07T04:34:55.048Z,98978.88
2023-02-07T04:36:16.401Z,98988.69
2023-02-07T04:37:42.767Z,98986.03
2023-02-07T04:39:06.153Z,98998.19
2023-02-07T04:40:27.107Z,99001.00
2023-02-07T04:41:48.004Z,98997.69
2023-02-07T04:43:09.091Z,99000.53
2023-02-07T04:44:30.562Z,98999.66
2023-02-07T04:45:51.866Z,98996.56
2023-02-07T04:47:13.274Z,98996.91
2023-02-07T04:48:36.362Z,99002.00
2023-02-07T04:49:57.647Z,99003.63
2023-02-07T04:51:18.554Z,99006.41
2023-02-07T04:52:42.315Z,99001.06
2023-02-07T04:54:04.104Z,99000.63
2023-02-07T04:55:27.432Z,99015.56
2023-02-07T04:56:48.302Z,99005.03
2023-02-07T04:58:09.747Z,99008.19
2023-02-07T04:59:31.266Z,99003.88
2023-02-07T05:00:52.978Z,98996.69
2023-02-07T05:02:14.003Z,98997.84
2023-02-07T05:03:34.813Z,98994.97
2023-02-07T05:04:55.588Z,98989.44
2023-02-07T05:06:19.398Z,98993.69
2023-02-07T05:07:43.251Z,98990.44
2023-02-07T05:09:04.391Z,98985.38
2023-02-07T05:10:25.399Z,98985.38
2023-02-07T05:11:46.230Z,98984.69
2023-02-07T05:13:07.533Z,98982.00
2023-02-07T05:14:28.654Z,98979.56
2023-02-07T05:15:49.501Z,98981.53
2023-02-07T05:17:10.583Z,98975.75
2023-02-07T05:18:34.257Z,98986.28
2023-02-07T05:19:55.467Z,98981.78
2023-02-07T05:21:16.358Z,98981.53
2023-02-07T05:22:42.068Z,98979.81
2023-02-07T05:24:03.450Z,98978.56
2023-02-07T05:25:27.580Z,98977.06
2023-02-07T05:26:48.553Z,98976.47
2023-02-07T05:28:12.006Z,98983.63
2023-02-07T05:29:36.104Z,98987.13
2023-02-07T05:30:56.919Z,98989.09
2023-02-07T05:32:20.424Z,98996.84
2023-02-07T05:33:44.186Z,99009.00
2023-02-07T05:35:06.304Z,99005.66
2023-02-07T05:36:30.412Z,99002.19
2023-02-07T05:37:53.987Z,98993.84
2023-02-07T05:39:15.203Z,98990.13
2023-02-07T05:40:37.619Z,99001.38
2023-02-07T05:42:01.080Z,99005.28
2023-02-07T05:43:21.986Z,99011.09
2023-02-07T05:44:45.456Z,99003.53
2023-02-07T05:46:06.985Z,99001.56
2023-02-07T05:47:30.679Z,99003.06
2023-02-07T05:48:51.723Z,99004.25
2023-02-07T05:50:13.126Z,99007.56
2023-02-07T05:51:34.476Z,99008.41
2023-02-07T05:53:02.663Z,99004.47
2023-02-07T05:54:26.359Z,99004.31
2023-02-07T05:55:51.448Z,99002.50
2023-02-07T05:57:12.567Z,99019.81
2023-02-07T05:58:36.505Z,99011.41
2023-02-07T05:59:57.684Z,99013.00
2023-02-07T06:01:21.736Z,99018.31
2023-02-07T06:02:43.661Z,99018.91
2023-02-07T06:04:07.337Z,99023.31
2023-02-07T06:05:28.216Z,99019.81
2023-02-07T06:06:49.276Z,99028.88
2023-02-07T06:08:16.106Z,99028.16
2023-02-07T06:09:39.601Z,99036.16
2023-02-07T06:11:00.360Z,99045.31
2023-02-07T06:12:21.135Z,99037.88
2023-02-07T06:13:41.983Z,99038.13
2023-02-07T06:15:05.697Z,99039.53
2023-02-07T06:16:26.959Z,99042.44
2023-02-07T06:17:47.727Z,99043.47
2023-02-07T06:19:11.930Z,99042.81
2023-02-07T06:20:33.116Z,99048.19
2023-02-07T06:21:54.530Z,99046.94
2023-02-07T06:23:17.941Z,99051.00
2023-02-07T06:24:39.727Z,99053.75
2023-02-07T06:26:01.079Z,99066.41
2023-02-07T06:27:22.282Z,99063.84
2023-02-07T06:28:43.813Z,99058.78
2023-02-07T06:30:04.922Z,99054.25
2023-02-07T06:31:26.271Z,99056.44
2023-02-07T06:32:47.247Z,99054.63
2023-02-07T06:34:11.215Z,99050.78
2023-02-07T06:35:32.485Z,99046.84
2023-02-07T06:36:56.204Z,99041.53
2023-02-07T06:38:19.656Z,99047.66
2023-02-07T06:39:43.619Z,99060.59
2023-02-07T06:41:04.685Z,99047.28
2023-02-07T06:42:26.201Z,99052.75
2023-02-07T06:43:47.363Z,99057.34
2023-02-07T06:45:09.433Z,99058.03
2023-02-07T06:46:33.077Z,99059.06
2023-02-07T06:47:54.369Z,99063.38
2023-02-07T06:49:15.864Z,99071.84
2023-02-07T06:50:37.172Z,99074.28
2023-02-07T06:52:00.562Z,99070.31
2023-02-07T06:53:24.657Z,99067.78
2023-02-07T06:54:48.006Z,99063.28
2023-02-07T06:56:11.739Z,99063.03
2023-02-07T06:57:32.529Z,99068.22
2023-02-07T06:58:53.624Z,99068.38
2023-02-07T07:00:15.421Z,99070.94
2023-02-07T07:01:36.448Z,99073.47
2023-02-07T07:02:58.143Z,99058.78
2023-02-07T07:04:21.412Z,99076.94
2023-02-07T07:05:43.612Z,99076.72
2023-02-07T07:07:04.977Z,99074.38
2023-02-07T07:08:28.454Z,99073.13
2023-02-07T07:09:50.012Z,99077.16
2023-02-07T07:11:13.183Z,99082.59
2023-02-07T07:12:34.077Z,99078.88
2023-02-07T07:13:57.361Z,99079.34
2023-02-07T07:15:18.547Z,99078.53
2023-02-07T07:16:39.468Z,99092.44
2023-02-07T07:18:00.792Z,99080.63
2023-02-07T07:19:24.489Z,99092.06
2023-02-07T07:20:45.735Z,99095.75
2023-02-07T07:22:09.807Z,99100.50
2023-02-07T07:23:34.040Z,99109.16
2023-02-07T07:24:55.167Z,99117.31
2023-02-07T07:26:16.468Z,99116.25
2023-02-07T07:27:40.108Z,99109.16
2023-02-07T07:29:01.454Z,99105.03
2023-02-07T07:30:25.592Z,99113.69
2023-02-07T07:31:47.466Z,99115.19
2023-02-07T07:33:08.883Z,99106.88
2023-02-07T07:34:32.765Z,99108.75
2023-02-07T07:35:54.879Z,99101.22
2023-02-07T07:37:16.084Z,99104.44
2023-02-07T07:38:40.075Z,99109.97
2023-02-07T07:40:04.347Z,99104.22
2023-02-07T07:41:28.441Z,99106.28
2023-02-07T07:42:49.491Z,99103.63
2023-02-07T07:44:28.616Z,99104.22
2023-02-07T07:45:52.949Z,99097.34
2023-02-07T07:47:14.123Z,99096.44
2023-02-07T07:48:34.941Z,99099.44
2023-02-07T07:49:56.209Z,99100.44
2023-02-07T07:51:17.142Z,99094.69
2023-02-07T07:52:37.927Z,99099.09
2023-02-07T07:54:04.137Z,99096.81
2023-02-07T07:55:27.987Z,99092.75
2023-02-07T07:56:49.530Z,99092.88
2023-02-07T07:58:10.715Z,99105.59
2023-02-07T07:59:32.200Z,99103.16
2023-02-07T08:00:53.517Z,99102.94
2023-02-07T08:02:18.077Z,99104.44
2023-02-07T08:03:39.282Z,99111.41
2023-02-07T08:05:00.215Z,99107.69
2023-02-07T08:06:24.109Z,99095.44
2023-02-07T08:07:45.396Z,99100.78
2023-02-07T08:09:09.085Z,99096.78
2023-02-07T08:10:30.348Z,99098.47
2023-02-07T08:11:51.320Z,99102.91
2023-02-07T08:13:12.203Z,99099.31
2023-02-07T08:14:34.574Z,99096.97
2023-02-07T08:15:55.429Z,99083.94
2023-02-07T08:17:18.962Z,99085.47
2023-02-07T08:18:40.398Z,99088.41
2023-02-07T08:20:01.823Z,99076.97
2023-02-07T08:21:26.015Z,99079.25
2023-02-07T08:22:47.086Z,99081.31
2023-02-07T08:24:10.581Z,99081.88
2023-02-07T08:25:32.025Z,99083.81
2023-02-07T08:26:52.883Z,99085.31
2023-02-07T08:28:14.584Z,99083.16
2023-02-07T08:29:35.443Z,99081.22
2023-02-07T08:31:00.003Z,99087.22
2023-02-07T08:32:21.326Z,99078.91
2023-02-07T08:33:42.748Z,99076.44
2023-02-07T08:35:03.675Z,99081.00
2023-02-07T08:36:25.316Z,99082.88
2023-02-07T08:37:46.794Z,99079.03
2023-02-07T08:39:10.716Z,99082.56
2023-02-07T08:40:32.093Z,99083.88
2023-02-07T08:41:52.833Z,99083.16
2023-02-07T08:43:14.136Z,99077.72
2023-02-07T08:44:35.035Z,99072.06
2023-02-07T08:45:56.122Z,99077.84
2023-02-07T08:47:17.995Z,99077.69
2023-02-07T08:48:40.200Z,99068.19
2023-02-07T08:50:05.769Z,99069.25
2023-02-07T08:51:26.830Z,99068.47
2023-02-07T08:52:50.503Z,99072.06
2023-02-07T08:54:14.320Z,99079.16
2023-02-07T08:55:35.932Z,99084.00
2023-02-07T08:56:57.284Z,99073.50
2023-02-07T08:58:18.588Z,99078.25
2023-02-07T08:59:43.063Z,99072.00
2023-02-07T09:01:06.730Z,99072.00
2023-02-07T09:02:28.290Z,99072.94
2023-02-07T09:03:54.641Z,99070.94
2023-02-07T09:05:15.973Z,99072.72
2023-02-07T09:06:37.491Z,99074.19
2023-02-07T09:07:58.974Z,99071.06
2023-02-07T09:09:22.479Z,99065.16
2023-02-07T09:10:45.983Z,99070.63
2023-02-07T09:12:09.701Z,99066.78
2023-02-07T09:13:30.867Z,99066.66
2023-02-07T09:14:51.685Z,99061.00
2023-02-07T09:16:14.902Z,99062.38
2023-02-07T09:17:36.426Z,99066.78
2023-02-07T09:19:00.564Z,99070.94
2023-02-07T09:20:24.082Z,99070.00
2023-02-07T09:21:45.591Z,99071.44
2023-02-07T09:23:06.836Z,99075.69
2023-02-07T09:24:30.821Z,99082.66
2023-02-07T09:25:54.728Z,99079.78
2023-02-07T09:27:16.221Z,99078.00
2023-02-07T09:28:37.282Z,99076.28
2023-02-07T09:29:58.133Z,99075.94
2023-02-07T09:31:19.524Z,99073.03
2023-02-07T09:32:46.299Z,99074.19
2023-02-07T09:34:07.563Z,99067.59
2023-02-07T09:35:28.942Z,99059.25
2023-02-07T09:36:49.990Z,99060.63
2023-02-07T09:38:15.129Z,99064.81
2023-02-07T09:39:39.202Z,99058.66
2023-02-07T09:41:00.521Z,99059.59
2023-02-07T09:42:30.611Z,99062.72
2023-02-07T09:44:00.879Z,99063.78
2023-02-07T09:45:25.310Z,99054.25
2023-02-07T09:46:54.014Z,99057.50
2023-02-07T09:48:20.658Z,99058.66
2023-02-07T09:49:48.914Z,99059.91
2023-02-07T09:51:11.661Z,99047.50
2023-02-07T09:52:37.176Z,99044.25
2023-02-07T09:54:04.147Z,99055.63
2023-02-07T09:55:34.457Z,99048.91
2023-02-07T09:57:03.134Z,99044.59
2023-02-07T09:58:39.795Z,99039.84
2023-02-07T10:00:07.431Z,99040.06
2023-02-07T10:01:34.485Z,99050.75
2023-02-07T10:02:59.458Z,99049.00
2023-02-07T10:04:29.737Z,99053.75
2023-02-07T10:06:01.480Z,99050.06
2023-02-07T10:07:24.722Z,99055.41
2023-02-07T10:08:54.721Z,99051.66
2023-02-07T10:10:17.010Z,99048.53
2023-02-07T10:11:51.728Z,99047.97
2023-02-07T10:13:39.045Z,99059.53
2023-02-07T10:15:27.768Z,99054.81
2023-02-07T10:17:05.510Z,99052.72
2023-02-07T10:18:40.179Z,99063.97
2023-02-07T10:20:24.748Z,99058.97
2023-02-07T10:21:58.535Z,99057.69
2023-02-07T10:23:37.019Z,99060.47
2023-02-07T10:25:11.809Z,99055.84
2023-02-07T10:26:37.254Z,99049.22
2023-02-07T10:28:15.232Z,99049.81
2023-02-07T10:29:54.766Z,99056.06
2023-02-07T10:31:16.694Z,99054.78
2023-02-07T10:32:39.373Z,99049.56
2023-02-07T10:34:10.691Z,99039.09
2023-02-07T10:35:33.183Z,99038.16
2023-02-07T10:36:58.167Z,99037.91
2023-02-07T10:38:27.897Z,99036.44
2023-02-07T10:40:01.833Z,99038.06
2023-02-07T10:41:27.045Z,99031.22
2023-02-07T10:42:54.532Z,99030.41
2023-02-07T10:44:19.911Z,99024.47
2023-02-07T10:45:42.504Z,99017.84
2023-02-07T10:47:05.965Z,99022.13
2023-02-07T10:48:27.875Z,99021.09
2023-02-07T10:49:51.852Z,99025.38
2023-02-07T10:51:24.888Z,99027.94
2023-02-07T10:52:50.866Z,99022.81
2023-02-07T10:54:16.621Z,99021.91
2023-02-07T10:55:41.863Z,99025.00
2023-02-07T10:57:03.284Z,99016.69
2023-02-07T10:58:24.875Z,99016.97
2023-02-07T10:59:49.582Z,99023.50
2023-02-07T11:01:19.042Z,99025.09
2023-02-07T11:02:49.052Z,99021.97
2023-02-07T11:04:24.001Z,99019.13
2023-02-07T11:05:53.889Z,99016.69
2023-02-07T11:07:15.905Z,99020.44
2023-02-07T11:08:37.412Z,99027.16
2023-02-07T11:10:15.675Z,99014.03
2023-02-07T11:11:37.119Z,99029.31
2023-02-07T11:13:01.929Z,99035.25
2023-02-07T11:14:26.898Z,99033.47
2023-02-07T11:15:55.380Z,99031.38
2023-02-07T11:17:21.346Z,99031.94
2023-02-07T11:18:45.766Z,99033.34
2023-02-07T11:20:17.273Z,99027.59
2023-02-07T11:21:42.593Z,99026.22
2023-02-07T11:23:14.050Z,99030.06
2023-02-07T11:24:36.985Z,99030.94
2023-02-07T11:25:58.336Z,99020.25
2023-02-07T11:27:22.469Z,99020.03
2023-02-07T11:28:43.926Z,99027.00
2023-02-07T11:30:09.063Z,99019.56
2023-02-07T11:31:36.083Z,99026.25
2023-02-07T11:33:01.231Z,99020.19
2023-02-07T11:34:36.188Z,99020.69
2023-02-07T11:36:10.412Z,99022.28
2023-02-07T11:37:36.008Z,99014.59
2023-02-07T11:38:59.503Z,99011.19
2023-02-07T11:40:24.546Z,99006.41
2023-02-07T11:41:54.668Z,98995.06
2023-02-07T11:43:20.265Z,98997.75
2023-02-07T11:44:46.689Z,98995.16
2023-02-07T11:46:10.893Z,98997.97
2023-02-07T11:47:37.321Z,98993.94
2023-02-07T11:49:01.147Z,98992.06
2023-02-07T11:50:25.866Z,98995.53
2023-02-07T11:51:51.837Z,98992.16
2023-02-07T11:53:22.867Z,98994.81
2023-02-07T11:54:51.009Z,98991.88
2023-02-07T11:56:23.006Z,98986.25
2023-02-07T11:57:46.414Z,98990.03
2023-02-07T11:59:14.068Z,98980.22
2023-02-07T12:00:38.878Z,98980.47
2023-02-07T12:02:17.068Z,98981.28
2023-02-07T12:03:49.092Z,98981.91
2023-02-07T12:05:19.799Z,98967.81
2023-02-07T12:06:47.074Z,98969.22
2023-02-07T12:08:14.353Z,98974.94
2023-02-07T12:09:41.202Z,98975.94
2023-02-07T12:11:10.520Z,98971.38
2023-02-07T12:12:39.255Z,98978.75
2023-02-07T12:14:08.102Z,98976.81
2023-02-07T12:15:38.061Z,98978.59
2023-02-07T12:17:01.075Z,98981.28
2023-02-07T12:18:28.410Z,98981.19
2023-02-07T12:19:58.256Z,98977.53
2023-02-07T12:21:24.541Z,98975.84
2023-02-07T12:23:04.801Z,98972.81
2023-02-07T12:24:38.426Z,98977.06
2023-02-07T12:26:05.726Z,98971.75
2023-02-07T12:27:35.300Z,98971.50
2023-02-07T12:29:26.084Z,98981.13
2023-02-07T12:30:52.040Z,98974.97
2023-02-07T12:32:18.489Z,98970.44
2023-02-07T12:33:46.468Z,98970.50
2023-02-07T12:35:20.118Z,98970.75
2023-02-07T12:36:46.279Z,98979.28
2023-02-07T12:38:16.127Z,98976.28
2023-02-07T12:39:43.103Z,98970.44
2023-02-07T12:41:13.647Z,98968.84
2023-02-07T12:42:40.538Z,98969.63
2023-02-07T12:44:10.886Z,98973.63
2023-02-07T12:45:49.201Z,98964.53
2023-02-07T12:47:23.219Z,98966.63
2023-02-07T12:49:04.014Z,98967.19
2023-02-07T12:50:49.087Z,98970.38
2023-02-07T12:52:25.079Z,98964.03
2023-02-07T12:54:03.096Z,98964.84
2023-02-07T12:55:38.023Z,98962.91
2023-02-07T12:57:09.042Z,98966.41
2023-02-07T12:58:42.232Z,98960.00
2023-02-07T13:00:11.394Z,98961.81
2023-02-07T13:01:39.858Z,98954.56
2023-02-07T13:03:18.971Z,98960.16
2023-02-07T13:05:05.925Z,98950.31
2023-02-07T13:06:35.888Z,98954.81
2023-02-07T13:08:07.451Z,98944.41
2023-02-07T13:09:38.587Z,98947.56
2023-02-07T13:11:12.973Z,98946.50
2023-02-07T13:12:39.689Z,98947.47
2023-02-07T13:14:15.244Z,98945.34
2023-02-07T13:15:45.030Z,98948.03
2023-02-07T13:17:26.770Z,98937.69
2023-02-07T13:18:56.559Z,98945.88
2023-02-07T13:20:33.676Z,98946.31
2023-02-07T13:22:02.320Z,98947.94
2023-02-07T13:23:30.490Z,98950.47
2023-02-07T13:24:52.976Z,98948.75
2023-02-07T13:26:17.851Z,98950.72
2023-02-07T13:27:40.859Z,98950.72
2023-02-07T13:29:10.732Z,98952.91
2023-02-07T13:30:34.860Z,98950.88
2023-02-07T13:32:02.691Z,98954.06
2023-02-07T13:33:30.628Z,98952.41
2023-02-07T13:34:58.749Z,98954.84
2023-02-07T13:36:35.635Z,98946.75
2023-02-07T13:38:07.863Z,98945.03
2023-02-07T13:39:45.888Z,98958.88
2023-02-07T13:41:15.795Z,98950.22
2023-02-07T13:42:46.468Z,98949.28
2023-02-07T13:44:16.806Z,98945.75
2023-02-07T13:45:50.684Z,98945.72
2023-02-07T13:47:36.710Z,98947.56
2023-02-07T13:49:07.977Z,98940.59
2023-02-07T13:50:41.696Z,98944.59
2023-02-07T13:52:10.896Z,98943.75
2023-02-07T13:53:46.254Z,98941.91
2023-02-07T13:55:22.354Z,98938.91
2023-02-07T13:56:56.320Z,98945.69
2023-02-07T13:58:47.570Z,98946.06
2023-02-07T14:00:18.445Z,98943.00
2023-02-07T14:01:51.614Z,98940.91
2023-02-07T14:03:20.932Z,98934.91
2023-02-07T14:04:50.753Z,98942.44
2023-02-07T14:06:22.186Z,98935.47
2023-02-07T14:07:52.739Z,98940.50
2023-02-07T14:09:24.164Z,98941.31
2023-02-07T14:10:47.906Z,98945.84
2023-02-07T14:12:19.409Z,98948.50
2023-02-07T14:13:40.941Z,98944.56
2023-02-07T14:15:34.789Z,98942.69
2023-02-07T14:16:57.636Z,98944.72
2023-02-07T14:18:38.026Z,98943.44
2023-02-07T14:20:05.328Z,98945.22
2023-02-07T14:21:40.109Z,98936.06
2023-02-07T14:23:14.770Z,98940.28
2023-02-07T14:24:49.706Z,98943.66
2023-02-07T14:26:40.624Z,98942.41
2023-02-07T14:28:29.127Z,98944.22
2023-02-07T14:29:55.804Z,98940.66
2023-02-07T14:31:23.191Z,98945.78
2023-02-07T14:33:00.780Z,98944.66
2023-02-07T14:34:23.618Z,98948.69
2023-02-07T14:36:03.683Z,98951.34
2023-02-07T14:37:39.164Z,98947.09
2023-02-07T14:39:06.468Z,98947.31
2023-02-07T14:40:36.356Z,98946.53
2023-02-07T14:42:11.053Z,98946.28
2023-02-07T14:43:43.351Z,98945.38
2023-02-07T14:45:04.866Z,98940.84
2023-02-07T14:46:28.774Z,98936.56
2023-02-07T14:47:51.527Z,98943.16
2023-02-07T14:49:21.509Z,98934.34
2023-02-07T14:50:52.706Z,98937.19
2023-02-07T14:52:21.221Z,98938.47
2023-02-07T14:53:44.219Z,98935.31
2023-02-07T14:55:14.473Z,98939.75
2023-02-07T14:56:51.456Z,98933.84
2023-02-07T14:58:25.139Z,98944.94
2023-02-07T14:59:54.373Z,98945.97
2023-02-07T15:01:18.173Z,98951.31
2023-02-07T15:02:41.323Z,98954.66
2023-02-07T15:04:07.134Z,98942.34
2023-02-07T15:05:31.551Z,98947.34
2023-02-07T15:06:53.070Z,98946.53
2023-02-07T15:08:18.253Z,98946.94
2023-02-07T15:09:42.397Z,98949.84
2023-02-07T15:11:04.710Z,98952.50
2023-02-07T15:12:28.622Z,98950.34
2023-02-07T15:13:50.252Z,98955.91
2023-02-07T15:15:18.470Z,98951.53
2023-02-07T15:16:42.315Z,98953.06
2023-02-07T15:18:12.391Z,98951.06
2023-02-07T15:19:39.517Z,98950.50
2023-02-07T15:21:03.343Z,98948.63
2023-02-07T15:22:29.686Z,98942.13
2023-02-07T15:23:57.339Z,98948.75
2023-02-07T15:25:22.034Z,98944.72
2023-02-07T15:26:48.519Z,98937.44
2023-02-07T15:28:27.479Z,98950.78
2023-02-07T15:29:55.453Z,98950.22
2023-02-07T15:31:17.121Z,98954.28
2023-02-07T15:32:43.558Z,98954.38
2023-02-07T15:34:06.758Z,98946.28
2023-02-07T15:35:36.039Z,98950.56
2023-02-07T15:36:58.544Z,98945.13
2023-02-07T15:38:23.416Z,98941.09
2023-02-07T15:39:44.873Z,98947.47
2023-02-07T15:41:08.441Z,98951.66
2023-02-07T15:42:29.288Z,98956.50
2023-02-07T15:43:58.895Z,98953.63
2023-02-07T15:45:24.982Z,98958.72
2023-02-07T15:46:47.696Z,98960.47
2023-02-07T15:48:18.719Z,98963.72
2023-02-07T15:49:41.752Z,98964.66
2023-02-07T15:51:05.238Z,98967.31
2023-02-07T15:52:32.163Z,98968.38
2023-02-07T15:53:57.843Z,98967.53
2023-02-07T15:55:26.601Z,98964.78
2023-02-07T15:56:52.082Z,98965.03
2023-02-07T15:58:24.727Z,98971.28
2023-02-07T15:59:52.015Z,98970.00
2023-02-07T16:01:22.230Z,98972.91
2023-02-07T16:02:46.122Z,98975.56
2023-02-07T16:04:08.312Z,98982.41
2023-02-07T16:05:31.980Z,98977.66
2023-02-07T16:06:59.019Z,98978.34
2023-02-07T16:08:30.926Z,98980.78
2023-02-07T16:09:52.227Z,98980.78
2023-02-07T16:11:33.124Z,98978.13
2023-02-07T16:13:00.397Z,98983.22
2023-02-07T16:14:23.898Z,98981.16
2023-02-07T16:15:56.461Z,98992.03
2023-02-07T16:17:22.392Z,98992.03
2023-02-07T16:18:45.795Z,98986.94
2023-02-07T16:20:14.069Z,98989.13
2023-02-07T16:21:37.715Z,98980.44
2023-02-07T16:23:01.758Z,98984.97
2023-02-07T16:24:24.691Z,98979.06
2023-02-07T16:25:45.865Z,98987.28
2023-02-07T16:27:15.935Z,98986.81
2023-02-07T16:28:37.376Z,98977.19
2023-02-07T16:29:59.486Z,98981.50
2023-02-07T16:31:23.750Z,98993.41
2023-02-07T16:32:44.922Z,98991.31
2023-02-07T16:34:06.293Z,98986.13
2023-02-07T16:35:30.473Z,98986.13
2023-02-07T16:36:53.340Z,98987.06
2023-02-07T16:38:16.942Z,98995.84
2023-02-07T16:39:40.950Z,98988.44
2023-02-07T16:41:05.303Z,98990.28
2023-02-07T16:42:26.622Z,98988.44
2023-02-07T16:43:50.213Z,98988.22
2023-02-07T16:45:19.485Z,98989.00
2023-02-07T16:46:43.514Z,98999.31
2023-02-07T16:48:14.507Z,98997.72
2023-02-07T16:49:38.209Z,98993.53